Time,TemperatureF,DewpointF,PressureIn,WindDirection,WindDirectionDegrees,WindSpeedMPH,WindSpeedGustMPH,Humidity,HourlyPrecipIn,Conditions,Clouds,dailyrainin,SoftwareType,DateUTC
2013-08-04 00:00:00,78.3,31.3,30.11,WNW,301,3.0,3.0,18,0.00,,,0.00,Wunderground v.1.15,2013-08-04 07:00:00,
2013-08-04 00:05:00,78.5,31.4,30.11,NW,308,1.0,8.0,18,0.00,,,0.00,Wunderground v.1.15,2013-08-04 07:05:00,
2013-08-04 00:10:00,78.5,30.0,30.11,NW,310,1.0,8.0,17,0.00,,,0.00,Wunderground v.1.15,2013-08-04 07:10:00,
2013-08-04 00:20:00,78.9,30.4,30.11,WNW,293,2.0,8.0,17,0.00,,,0.00,Wunderground v.1.15,2013-08-04 07:20:00,
2013-08-04 00:25:00,78.6,31.5,30.11,West,266,3.0,8.0,18,0.00,,,0.00,Wunderground v.1.15,2013-08-04 07:25:00,
2013-08-04 00:30:00,78.3,31.3,30.11,West,279,5.0,5.0,18,0.00,,,0.00,Wunderground v.1.15,2013-08-04 07:30:00,
2013-08-04 00:35:00,78.3,31.3,30.11,WNW,291,6.0,6.0,18,0.00,,,0.00,Wunderground v.1.15,2013-08-04 07:35:00,
2013-08-04 00:45:00,78.1,31.1,30.11,WNW,290,5.0,12.0,18,0.00,,,0.00,Wunderground v.1.15,2013-08-04 07:45:00,
2013-08-04 00:50:00,77.9,31.0,30.11,WNW,291,6.0,12.0,18,0.00,,,0.00,Wunderground v.1.15,2013-08-04 07:50:00,
2013-08-04 01:00:00,78.6,30.1,30.11,West,277,7.0,7.0,17,0.00,,,0.00,Wunderground v.1.15,2013-08-04 08:00:00,
2013-08-04 01:10:00,79.3,29.2,30.11,NW,307,7.0,7.0,16,0.00,,,0.00,Wunderground v.1.15,2013-08-04 08:10:00,
2013-08-04 01:15:00,79.3,29.2,30.11,WNW,298,7.0,12.0,16,0.00,,,0.00,Wunderground v.1.15,2013-08-04 08:15:00,
2013-08-04 01:20:00,79.1,29.0,30.11,WNW,296,6.0,6.0,16,0.00,,,0.00,Wunderground v.1.15,2013-08-04 08:20:00,
2013-08-04 01:30:00,79.0,27.4,30.11,WNW,298,6.0,6.0,15,0.00,,,0.00,Wunderground v.1.15,2013-08-04 08:30:00,
2013-08-04 01:35:00,79.1,25.8,30.11,WNW,285,6.0,11.0,14,0.00,,,0.00,Wunderground v.1.15,2013-08-04 08:35:00,
2013-08-04 01:44:00,78.8,25.5,30.11,WNW,286,6.0,11.0,14,0.00,,,0.00,Wunderground v.1.15,2013-08-04 08:44:00,
2013-08-04 01:50:00,78.5,25.3,30.10,WNW,297,5.0,11.0,14,0.00,,,0.00,Wunderground v.1.15,2013-08-04 08:50:00,
2013-08-04 01:55:00,78.3,25.1,30.10,WNW,296,3.0,11.0,14,0.00,,,0.00,Wunderground v.1.15,2013-08-04 08:55:00,
2013-08-04 02:00:00,78.0,24.9,30.11,WNW,286,3.0,11.0,14,0.00,,,0.00,Wunderground v.1.15,2013-08-04 09:00:00,
2013-08-04 02:10:00,77.5,24.5,30.11,WNW,283,3.0,11.0,14,0.00,,,0.00,Wunderground v.1.15,2013-08-04 09:10:00,
2013-08-04 02:15:00,77.4,24.4,30.11,WNW,291,3.0,11.0,14,0.00,,,0.00,Wunderground v.1.15,2013-08-04 09:15:00,
2013-08-04 02:20:00,77.3,24.4,30.11,WNW,290,2.0,9.0,14,0.00,,,0.00,Wunderground v.1.15,2013-08-04 09:20:00,
2013-08-04 02:30:00,77.3,24.4,30.11,WNW,291,2.0,2.0,14,0.00,,,0.00,Wunderground v.1.15,2013-08-04 09:30:00,
2013-08-04 02:35:00,76.9,24.0,30.11,WNW,291,0.0,6.0,14,0.00,,,0.00,Wunderground v.1.15,2013-08-04 09:35:00,
2013-08-04 02:45:00,75.1,22.6,30.11,West,277,0.0,6.0,14,0.00,,,0.00,Wunderground v.1.15,2013-08-04 09:45:00,
2013-08-04 02:50:00,74.3,23.6,30.11,West,277,0.0,6.0,15,0.00,,,0.00,Wunderground v.1.15,2013-08-04 09:50:00,
2013-08-04 03:00:00,73.4,24.4,30.11,West,277,0.0,6.0,16,0.00,,,0.00,Wunderground v.1.15,2013-08-04 10:00:00,
2013-08-04 03:05:00,73.1,24.2,30.10,West,277,0.0,6.0,16,0.00,,,0.00,Wunderground v.1.15,2013-08-04 10:05:00,
2013-08-04 03:15:00,73.2,24.3,30.10,West,277,0.0,4.0,16,0.00,,,0.00,Wunderground v.1.15,2013-08-04 10:15:00,
2013-08-04 03:20:00,73.9,24.8,30.10,West,277,0.0,4.0,16,0.00,,,0.00,Wunderground v.1.15,2013-08-04 10:20:00,
2013-08-04 03:30:00,74.9,25.6,30.10,WNW,283,2.0,4.0,16,0.00,,,0.00,Wunderground v.1.15,2013-08-04 10:30:00,
2013-08-04 03:35:00,74.9,25.6,30.10,WNW,283,2.0,4.0,16,0.00,,,0.00,Wunderground v.1.15,2013-08-04 10:35:00,
2013-08-04 03:40:00,75.2,25.9,30.10,West,270,3.0,3.0,16,0.00,,,0.00,Wunderground v.1.15,2013-08-04 10:40:00,
2013-08-04 03:45:00,75.3,24.4,30.10,West,275,2.0,4.0,15,0.00,,,0.00,Wunderground v.1.15,2013-08-04 10:45:00,
2013-08-04 03:50:00,74.5,25.3,30.10,West,275,0.0,6.0,16,0.00,,,0.00,Wunderground v.1.15,2013-08-04 10:50:00,
2013-08-04 04:00:00,73.5,26.0,30.10,West,275,0.0,6.0,17,0.00,,,0.00,Wunderground v.1.15,2013-08-04 11:00:00,
2013-08-04 04:05:00,72.5,26.5,30.10,SW,226,0.0,6.0,18,0.00,,,0.00,Wunderground v.1.15,2013-08-04 11:05:00,
2013-08-04 04:10:00,72.2,26.3,30.10,SW,226,0.0,6.0,18,0.00,,,0.00,Wunderground v.1.15,2013-08-04 11:10:00,
2013-08-04 04:15:00,72.0,26.1,30.10,SW,226,0.0,6.0,18,0.00,,,0.00,Wunderground v.1.15,2013-08-04 11:15:00,
2013-08-04 04:20:00,71.5,27.0,30.10,SW,226,0.0,6.0,19,0.00,,,0.00,Wunderground v.1.15,2013-08-04 11:20:00,
2013-08-04 04:30:00,71.2,28.0,30.11,SW,226,0.0,6.0,20,0.00,,,0.00,Wunderground v.1.15,2013-08-04 11:30:00,
2013-08-04 04:35:00,70.9,27.8,30.11,SW,227,1.0,6.0,20,0.00,,,0.00,Wunderground v.1.15,2013-08-04 11:35:00,
2013-08-04 04:40:00,71.3,28.1,30.11,WSW,258,2.0,5.0,20,0.00,,,0.00,Wunderground v.1.15,2013-08-04 11:40:00,
2013-08-04 04:50:00,72.1,27.5,30.11,WSW,254,5.0,6.0,19,0.00,,,0.00,Wunderground v.1.15,2013-08-04 11:50:00,
2013-08-04 05:00:00,72.7,26.7,30.11,West,265,4.0,4.0,18,0.00,,,0.00,Wunderground v.1.15,2013-08-04 12:00:00,
2013-08-04 05:05:00,72.6,26.6,30.11,West,263,3.0,9.0,18,0.00,,,0.00,Wunderground v.1.15,2013-08-04 12:05:00,
2013-08-04 05:15:00,72.1,26.2,30.11,West,260,0.0,9.0,18,0.00,,,0.00,Wunderground v.1.15,2013-08-04 12:15:00,
2013-08-04 05:20:00,71.8,26.0,30.11,West,260,0.0,9.0,18,0.00,,,0.00,Wunderground v.1.15,2013-08-04 12:20:00,
2013-08-04 05:30:00,71.2,24.1,30.12,West,260,0.0,9.0,17,0.00,,,0.00,Wunderground v.1.15,2013-08-04 12:30:00,
2013-08-04 05:35:00,71.4,21.3,30.12,West,260,0.0,9.0,15,0.00,,,0.00,Wunderground v.1.15,2013-08-04 12:35:00,
2013-08-04 05:40:00,71.7,19.9,30.12,West,260,0.0,3.0,14,0.00,,,0.00,Wunderground v.1.15,2013-08-04 12:40:00,
2013-08-04 05:50:00,71.3,17.9,30.12,West,260,0.0,3.0,13,0.00,,,0.00,Wunderground v.1.15,2013-08-04 12:50:00,
2013-08-04 06:00:00,70.8,19.2,30.13,West,260,0.0,3.0,14,0.00,,,0.00,Wunderground v.1.15,2013-08-04 13:00:00,
2013-08-04 06:05:00,70.1,18.6,30.13,West,260,0.0,3.0,14,0.00,,,0.00,Wunderground v.1.15,2013-08-04 13:05:00,
2013-08-04 06:15:00,70.6,13.5,30.13,West,260,1.0,1.0,11,0.00,,,0.00,Wunderground v.1.15,2013-08-04 13:15:00,
2013-08-04 06:20:00,71.2,13.9,30.13,West,260,1.0,1.0,11,0.00,,,0.00,Wunderground v.1.15,2013-08-04 13:20:00,
2013-08-04 06:30:00,70.1,13.1,30.13,WSW,253,1.0,1.0,11,0.00,,,0.00,Wunderground v.1.15,2013-08-04 13:30:00,
2013-08-04 06:40:00,69.0,10.1,30.14,WSW,256,2.0,4.0,10,0.00,,,0.00,Wunderground v.1.15,2013-08-04 13:40:00,
2013-08-04 06:45:00,70.1,8.6,30.14,West,262,3.0,4.0,9,0.00,,,0.00,Wunderground v.1.15,2013-08-04 13:45:00,
2013-08-04 06:50:00,71.2,9.4,30.14,West,262,1.0,1.0,9,0.00,,,0.00,Wunderground v.1.15,2013-08-04 13:50:00,
2013-08-04 07:00:00,73.2,8.3,30.15,West,264,1.0,1.0,8,0.00,,,0.00,Wunderground v.1.15,2013-08-04 14:00:00,
2013-08-04 07:05:00,74.2,9.0,30.15,West,264,2.0,2.0,8,0.00,,,0.00,Wunderground v.1.15,2013-08-04 14:05:00,
2013-08-04 07:15:00,75.5,10.0,30.15,West,264,1.0,6.0,8,0.00,,,0.00,Wunderground v.1.15,2013-08-04 14:15:00,
2013-08-04 07:20:00,76.1,10.4,30.15,West,264,0.0,6.0,8,0.00,,,0.00,Wunderground v.1.15,2013-08-04 14:20:00,
2013-08-04 07:30:00,77.7,16.7,30.15,West,263,0.0,6.0,10,0.00,,,0.00,Wunderground v.1.15,2013-08-04 14:30:00,
2013-08-04 07:35:00,78.7,19.7,30.16,West,263,0.0,6.0,11,0.00,,,0.00,Wunderground v.1.15,2013-08-04 14:35:00,
2013-08-04 07:45:00,80.0,22.8,30.15,West,263,0.0,6.0,12,0.00,,,0.00,Wunderground v.1.15,2013-08-04 14:45:00,
2013-08-04 07:50:00,80.2,24.9,30.16,West,263,0.0,4.0,13,0.00,,,0.00,Wunderground v.1.15,2013-08-04 14:50:00,
2013-08-04 08:00:00,81.1,25.6,30.16,WSW,252,0.0,4.0,13,0.00,,,0.00,Wunderground v.1.15,2013-08-04 15:00:00,
2013-08-04 08:05:00,81.2,23.7,30.16,South,190,0.0,5.0,12,0.00,,,0.00,Wunderground v.1.15,2013-08-04 15:05:00,
2013-08-04 08:15:00,81.0,25.5,30.16,South,177,0.0,5.0,13,0.00,,,0.00,Wunderground v.1.15,2013-08-04 15:15:00,
2013-08-04 08:20:00,81.1,23.7,30.16,South,173,1.0,1.0,12,0.00,,,0.00,Wunderground v.1.15,2013-08-04 15:20:00,
2013-08-04 08:25:00,81.2,21.7,30.16,SSE,168,2.0,2.0,11,0.00,,,0.00,Wunderground v.1.15,2013-08-04 15:25:00,
2013-08-04 08:35:00,81.7,24.1,30.16,SSE,163,1.0,6.0,12,0.00,,,0.00,Wunderground v.1.15,2013-08-04 15:35:00,
2013-08-04 08:45:00,81.8,24.2,30.16,SSE,163,0.0,6.0,12,0.00,,,0.00,Wunderground v.1.15,2013-08-04 15:45:00,
2013-08-04 08:50:00,82.2,24.5,30.16,SSE,159,1.0,1.0,12,0.00,,,0.00,Wunderground v.1.15,2013-08-04 15:50:00,
2013-08-04 09:00:00,82.3,22.5,30.16,SE,137,2.0,6.0,11,0.00,,,0.00,Wunderground v.1.15,2013-08-04 16:00:00,
2013-08-04 09:05:00,82.2,24.5,30.17,SE,138,3.0,7.0,12,0.00,,,0.00,Wunderground v.1.15,2013-08-04 16:05:00,
2013-08-04 09:15:00,83.2,23.2,30.17,SE,138,1.0,7.0,11,0.00,,,0.00,Wunderground v.1.15,2013-08-04 16:15:00,
2013-08-04 09:20:00,83.3,23.3,30.17,SE,133,1.0,1.0,11,0.00,,,0.00,Wunderground v.1.15,2013-08-04 16:20:00,
2013-08-04 09:30:00,83.7,21.3,30.16,SE,125,1.0,1.0,10,0.00,,,0.00,Wunderground v.1.15,2013-08-04 16:30:00,
2013-08-04 09:35:00,83.5,21.2,30.16,SE,125,0.0,6.0,10,0.00,,,0.00,Wunderground v.1.15,2013-08-04 16:35:00,
2013-08-04 09:40:00,83.9,21.5,30.16,SE,125,0.0,6.0,10,0.00,,,0.00,Wunderground v.1.15,2013-08-04 16:40:00,
2013-08-04 09:45:00,84.6,16.8,30.16,SE,126,0.0,6.0,8,0.00,,,0.00,Wunderground v.1.15,2013-08-04 16:45:00,
2013-08-04 09:50:00,85.1,22.4,30.16,SE,126,1.0,6.0,10,0.00,,,0.00,Wunderground v.1.15,2013-08-04 16:50:00,
2013-08-04 10:00:00,85.0,19.8,30.16,SE,131,3.0,3.0,9,0.00,,,0.00,Wunderground v.1.15,2013-08-04 17:00:00,
2013-08-04 10:05:00,85.0,19.8,30.16,SE,130,2.0,7.0,9,0.00,,,0.00,Wunderground v.1.15,2013-08-04 17:05:00,
2013-08-04 10:15:00,86.2,18.0,30.16,East,100,0.0,7.0,8,0.00,,,0.00,Wunderground v.1.15,2013-08-04 17:15:00,
2013-08-04 10:20:00,86.8,7.7,30.16,NNE,26,0.0,7.0,5,0.00,,,0.00,Wunderground v.1.15,2013-08-04 17:20:00,
2013-08-04 10:25:00,87.1,7.9,30.16,North,358,2.0,7.0,5,0.00,,,0.00,Wunderground v.1.15,2013-08-04 17:25:00,
2013-08-04 10:30:00,87.2,8.0,30.16,North,9,3.0,7.0,5,0.00,,,0.00,Wunderground v.1.15,2013-08-04 17:30:00,
2013-08-04 10:35:00,87.5,12.3,30.16,NNE,22,2.0,8.0,6,0.00,,,0.00,Wunderground v.1.15,2013-08-04 17:35:00,
2013-08-04 10:45:00,88.1,12.7,30.16,NNW,342,2.0,8.0,6,0.00,,,0.00,Wunderground v.1.15,2013-08-04 17:45:00,
2013-08-04 10:50:00,88.3,12.9,30.16,North,356,2.0,8.0,6,0.00,,,0.00,Wunderground v.1.15,2013-08-04 17:50:00,
2013-08-04 11:00:00,88.4,13.0,30.15,North,5,4.0,11.0,6,0.00,,,0.00,Wunderground v.1.15,2013-08-04 18:00:00,
2013-08-04 11:05:00,88.5,13.0,30.15,North,354,5.0,13.0,6,0.00,,,0.00,Wunderground v.1.15,2013-08-04 18:05:00,
2013-08-04 11:10:00,88.5,13.0,30.16,NW,322,7.0,7.0,6,0.00,,,0.00,Wunderground v.1.15,2013-08-04 18:10:00,
2013-08-04 11:15:00,88.8,16.8,30.15,NW,323,8.0,15.0,7,0.00,,,0.00,Wunderground v.1.15,2013-08-04 18:15:00,
2013-08-04 11:20:00,89.3,13.6,30.15,WNW,300,8.0,8.0,6,0.00,,,0.00,Wunderground v.1.15,2013-08-04 18:20:00,
2013-08-04 11:30:00,89.6,13.8,30.16,NNW,336,7.0,7.0,6,0.00,,,0.00,Wunderground v.1.15,2013-08-04 18:30:00,
2013-08-04 11:35:00,89.4,13.7,30.16,NNW,333,6.0,8.0,6,0.00,,,0.00,Wunderground v.1.15,2013-08-04 18:35:00,
2013-08-04 11:45:00,89.5,13.7,30.15,NNW,329,7.0,17.0,6,0.00,,,0.00,Wunderground v.1.15,2013-08-04 18:45:00,
2013-08-04 11:50:00,89.6,20.5,30.16,WNW,300,7.0,17.0,8,0.00,,,0.00,Wunderground v.1.15,2013-08-04 18:50:00,
2013-08-04 12:00:00,90.3,14.3,30.16,WSW,256,7.0,7.0,6,0.00,,,0.00,Wunderground v.1.15,2013-08-04 19:00:00,
2013-08-04 12:05:00,90.2,17.8,30.16,NNW,331,7.0,16.0,7,0.00,,,0.00,Wunderground v.1.15,2013-08-04 19:05:00,
2013-08-04 12:15:00,90.0,17.7,30.16,West,281,7.0,16.0,7,0.00,,,0.00,Wunderground v.1.15,2013-08-04 19:15:00,
2013-08-04 12:20:00,90.4,17.9,30.16,WNW,296,6.0,16.0,7,0.00,,,0.00,Wunderground v.1.15,2013-08-04 19:20:00,
2013-08-04 12:25:00,90.2,20.9,30.15,NW,321,6.0,16.0,8,0.00,,,0.00,Wunderground v.1.15,2013-08-04 19:25:00,
2013-08-04 12:35:00,90.6,14.5,30.15,West,266,6.0,16.0,6,0.00,,,0.00,Wunderground v.1.15,2013-08-04 19:35:00,
2013-08-04 12:45:00,90.9,24.2,30.15,NW,318,5.0,15.0,9,0.00,,,0.00,Wunderground v.1.15,2013-08-04 19:45:00,
2013-08-04 12:50:00,90.9,21.4,30.15,WSW,258,6.0,6.0,8,0.00,,,0.00,Wunderground v.1.15,2013-08-04 19:50:00,
2013-08-04 13:00:00,91.3,24.5,30.15,NNW,332,5.0,15.0,9,0.00,,,0.00,Wunderground v.1.15,2013-08-04 20:00:00,
2013-08-04 13:05:00,90.9,24.2,30.15,West,275,5.0,15.0,9,0.00,,,0.00,Wunderground v.1.15,2013-08-04 20:05:00,
2013-08-04 13:15:00,91.1,24.4,30.14,WNW,299,6.0,14.0,9,0.00,,,0.00,Wunderground v.1.15,2013-08-04 20:15:00,
2013-08-04 13:24:00,90.9,24.2,30.14,NW,324,7.0,14.0,9,0.00,,,0.00,Wunderground v.1.15,2013-08-04 20:24:00,
2013-08-04 13:30:00,90.6,26.6,30.14,NW,309,9.0,9.0,10,0.00,,,0.00,Wunderground v.1.15,2013-08-04 20:30:00,
2013-08-04 13:35:00,91.2,27.0,30.14,North,4,8.0,14.0,10,0.00,,,0.00,Wunderground v.1.15,2013-08-04 20:35:00,
2013-08-04 13:45:00,91.1,26.9,30.14,NW,316,9.0,19.0,10,0.00,,,0.00,Wunderground v.1.15,2013-08-04 20:45:00,
2013-08-04 13:50:00,90.6,26.6,30.14,NNW,341,10.0,19.0,10,0.00,,,0.00,Wunderground v.1.15,2013-08-04 20:50:00,
2013-08-04 13:55:00,90.5,23.9,30.14,North,352,11.0,19.0,9,0.00,,,0.00,Wunderground v.1.15,2013-08-04 20:55:00,
2013-08-04 14:00:00,90.7,26.6,30.13,NW,310,10.0,19.0,10,0.00,,,0.00,Wunderground v.1.15,2013-08-04 21:00:00,
2013-08-04 14:10:00,90.7,24.1,30.13,NW,305,12.0,12.0,9,0.00,,,0.00,Wunderground v.1.15,2013-08-04 21:10:00,
2013-08-04 14:15:00,90.7,26.6,30.13,NW,319,12.0,19.0,10,0.00,,,0.00,Wunderground v.1.15,2013-08-04 21:15:00,
2013-08-04 14:20:00,90.8,26.7,30.14,NNW,337,11.0,11.0,10,0.00,,,0.00,Wunderground v.1.15,2013-08-04 21:20:00,
2013-08-04 14:30:00,90.6,28.9,30.13,North,358,11.0,20.0,11,0.00,,,0.00,Wunderground v.1.15,2013-08-04 21:30:00,
2013-08-04 14:35:00,90.6,28.9,30.13,NNW,340,11.0,21.0,11,0.00,,,0.00,Wunderground v.1.15,2013-08-04 21:35:00,
2013-08-04 14:45:00,90.7,29.0,30.13,WNW,296,11.0,11.0,11,0.00,,,0.00,Wunderground v.1.15,2013-08-04 21:45:00,
2013-08-04 14:50:00,91.0,29.2,30.13,NW,315,10.0,21.0,11,0.00,,,0.00,Wunderground v.1.15,2013-08-04 21:50:00,
2013-08-04 15:00:00,90.8,26.7,30.12,NNW,343,9.0,21.0,10,0.00,,,0.00,Wunderground v.1.15,2013-08-04 22:00:00,
2013-08-04 15:05:00,90.9,26.8,30.12,NW,316,10.0,21.0,10,0.00,,,0.00,Wunderground v.1.15,2013-08-04 22:05:00,
2013-08-04 15:14:00,90.9,26.8,30.12,NW,308,11.0,20.0,10,0.00,,,0.00,Wunderground v.1.15,2013-08-04 22:14:00,
2013-08-04 15:20:00,90.5,26.5,30.11,NW,306,10.0,20.0,10,0.00,,,0.00,Wunderground v.1.15,2013-08-04 22:20:00,
2013-08-04 15:25:00,90.5,26.5,30.11,WNW,291,10.0,20.0,10,0.00,,,0.00,Wunderground v.1.15,2013-08-04 22:25:00,
2013-08-04 15:30:00,91.1,24.4,30.11,WNW,284,10.0,20.0,9,0.00,,,0.00,Wunderground v.1.15,2013-08-04 22:30:00,
2013-08-04 15:35:00,91.1,26.9,30.11,WNW,290,9.0,21.0,10,0.00,,,0.00,Wunderground v.1.15,2013-08-04 22:35:00,
2013-08-04 15:45:00,91.5,27.2,30.10,WNW,298,10.0,10.0,10,0.00,,,0.00,Wunderground v.1.15,2013-08-04 22:45:00,
2013-08-04 15:50:00,91.5,27.2,30.11,WNW,284,10.0,10.0,10,0.00,,,0.00,Wunderground v.1.15,2013-08-04 22:50:00,
2013-08-04 16:00:00,91.8,27.5,30.10,NW,321,9.0,21.0,10,0.00,,,0.00,Wunderground v.1.15,2013-08-04 23:00:00,
2013-08-04 16:05:00,91.7,24.8,30.10,NNW,341,10.0,21.0,9,0.00,,,0.00,Wunderground v.1.15,2013-08-04 23:05:00,
2013-08-04 16:15:00,91.8,24.9,30.10,NNW,328,10.0,19.0,9,0.00,,,0.00,Wunderground v.1.15,2013-08-04 23:15:00,
2013-08-04 16:20:00,91.0,26.9,30.09,NW,310,10.0,19.0,10,0.00,,,0.00,Wunderground v.1.15,2013-08-04 23:20:00,
2013-08-04 16:30:00,91.0,26.9,30.10,NW,306,11.0,19.0,10,0.00,,,0.00,Wunderground v.1.15,2013-08-04 23:30:00,
2013-08-04 16:35:00,90.7,26.6,30.10,NNW,329,11.0,22.0,10,0.00,,,0.00,Wunderground v.1.15,2013-08-04 23:35:00,
2013-08-04 16:40:00,90.8,29.0,30.10,WNW,290,11.0,11.0,11,0.00,,,0.00,Wunderground v.1.15,2013-08-04 23:40:00,
2013-08-04 16:50:00,90.4,28.7,30.09,NW,318,10.0,22.0,11,0.00,,,0.00,Wunderground v.1.15,2013-08-04 23:50:00,
2013-08-04 16:55:00,90.4,26.4,30.09,NW,306,11.0,22.0,10,0.00,,,0.00,Wunderground v.1.15,2013-08-04 23:55:00,
2013-08-04 17:00:00,90.4,28.7,30.09,WNW,287,11.0,11.0,11,0.00,,,0.00,Wunderground v.1.15,2013-08-05 00:00:00,
2013-08-04 17:05:00,90.6,28.9,30.09,NNW,333,10.0,12.0,11,0.00,,,0.00,Wunderground v.1.15,2013-08-05 00:05:00,
2013-08-04 17:15:00,89.8,28.3,30.09,NNW,327,11.0,15.0,11,0.00,,,0.00,Wunderground v.1.15,2013-08-05 00:15:00,
2013-08-04 17:20:00,89.9,28.3,30.09,NW,325,12.0,12.0,11,0.00,,,0.00,Wunderground v.1.15,2013-08-05 00:20:00,
2013-08-04 17:30:00,89.8,30.4,30.08,NW,314,10.0,10.0,12,0.00,,,0.00,Wunderground v.1.15,2013-08-05 00:30:00,
2013-08-04 17:35:00,89.7,30.3,30.08,NNW,331,10.0,21.0,12,0.00,,,0.00,Wunderground v.1.15,2013-08-05 00:35:00,
2013-08-04 17:40:00,89.8,30.4,30.08,WNW,292,10.0,10.0,12,0.00,,,0.00,Wunderground v.1.15,2013-08-05 00:40:00,
2013-08-04 17:45:00,89.7,28.2,30.08,NW,306,10.0,14.0,11,0.00,,,0.00,Wunderground v.1.15,2013-08-05 00:45:00,
2013-08-04 17:54:00,89.5,30.2,30.08,NNW,345,9.0,21.0,12,0.00,,,0.00,Wunderground v.1.15,2013-08-05 00:54:00,
2013-08-04 18:00:00,89.9,30.5,30.07,NW,316,8.0,21.0,12,0.00,,,0.00,Wunderground v.1.15,2013-08-05 01:00:00,
2013-08-04 18:05:00,89.3,30.0,30.07,NW,304,10.0,21.0,12,0.00,,,0.00,Wunderground v.1.15,2013-08-05 01:05:00,
2013-08-04 18:15:00,89.1,27.7,30.07,NNW,339,11.0,21.0,11,0.00,,,0.00,Wunderground v.1.15,2013-08-05 01:15:00,
2013-08-04 18:20:00,88.8,27.5,30.07,NNW,331,11.0,21.0,11,0.00,,,0.00,Wunderground v.1.15,2013-08-05 01:20:00,
2013-08-04 18:25:00,88.5,27.3,30.07,NNW,338,12.0,21.0,11,0.00,,,0.00,Wunderground v.1.15,2013-08-05 01:25:00,
2013-08-04 18:30:00,88.6,27.3,30.07,NNW,341,11.0,21.0,11,0.00,,,0.00,Wunderground v.1.15,2013-08-05 01:30:00,
2013-08-04 18:39:00,88.6,27.3,30.07,NNW,333,11.0,11.0,11,0.00,,,0.00,Wunderground v.1.15,2013-08-05 01:39:00,
2013-08-04 18:45:00,88.6,25.0,30.07,North,350,10.0,16.0,10,0.00,,,0.00,Wunderground v.1.15,2013-08-05 01:45:00,
2013-08-04 18:50:00,88.3,24.8,30.07,NNW,334,11.0,11.0,10,0.00,,,0.00,Wunderground v.1.15,2013-08-05 01:50:00,
2013-08-04 19:00:00,87.7,26.7,30.07,NW,321,11.0,11.0,11,0.00,,,0.00,Wunderground v.1.15,2013-08-05 02:00:00,
2013-08-04 19:05:00,87.6,26.6,30.08,NW,322,10.0,13.0,11,0.00,,,0.00,Wunderground v.1.15,2013-08-05 02:05:00,
2013-08-04 19:15:00,87.3,26.4,30.08,NW,318,7.0,20.0,11,0.00,,,0.00,Wunderground v.1.15,2013-08-05 02:15:00,
2013-08-04 19:20:00,86.8,28.1,30.08,NNW,327,6.0,20.0,12,0.00,,,0.00,Wunderground v.1.15,2013-08-05 02:20:00,
2013-08-04 19:30:00,86.2,29.6,30.08,NW,326,8.0,20.0,13,0.00,,,0.00,Wunderground v.1.15,2013-08-05 02:30:00,
2013-08-04 19:35:00,85.9,29.3,30.08,WNW,302,9.0,20.0,13,0.00,,,0.00,Wunderground v.1.15,2013-08-05 02:35:00,
2013-08-04 19:45:00,85.1,30.5,30.08,NW,313,8.0,20.0,14,0.00,,,0.00,Wunderground v.1.15,2013-08-05 02:45:00,
2013-08-04 19:50:00,85.0,28.6,30.08,WNW,303,7.0,7.0,13,0.00,,,0.00,Wunderground v.1.15,2013-08-05 02:50:00,
2013-08-04 20:00:00,84.7,28.4,30.08,NNW,328,9.0,20.0,13,0.00,,,0.00,Wunderground v.1.15,2013-08-05 03:00:00,
2013-08-04 20:05:00,84.5,28.2,30.08,WNW,296,9.0,20.0,13,0.00,,,0.00,Wunderground v.1.15,2013-08-05 03:05:00,
2013-08-04 20:10:00,84.4,26.2,30.08,NNW,331,9.0,9.0,12,0.00,,,0.00,Wunderground v.1.15,2013-08-05 03:10:00,
2013-08-04 20:15:00,84.3,28.1,30.08,NNW,340,8.0,15.0,13,0.00,,,0.00,Wunderground v.1.15,2013-08-05 03:15:00,
2013-08-04 20:25:00,84.1,27.9,30.09,NNW,329,11.0,18.0,13,0.00,,,0.00,Wunderground v.1.15,2013-08-05 03:25:00,
2013-08-04 20:35:00,83.9,29.6,30.09,North,357,9.0,18.0,14,0.00,,,0.00,Wunderground v.1.15,2013-08-05 03:35:00,
2013-08-04 20:45:00,83.7,29.4,30.09,WNW,298,9.0,18.0,14,0.00,,,0.00,Wunderground v.1.15,2013-08-05 03:45:00,
2013-08-04 20:50:00,84.1,27.9,30.09,NW,314,10.0,18.0,13,0.00,,,0.00,Wunderground v.1.15,2013-08-05 03:50:00,
2013-08-04 21:00:00,84.2,26.1,30.10,NNW,339,9.0,18.0,12,0.00,,,0.00,Wunderground v.1.15,2013-08-05 04:00:00,
2013-08-04 21:05:00,83.9,25.8,30.10,NW,325,8.0,19.0,12,0.00,,,0.00,Wunderground v.1.15,2013-08-05 04:05:00,
2013-08-04 21:10:00,83.6,25.6,30.10,NNW,335,8.0,8.0,12,0.00,,,0.00,Wunderground v.1.15,2013-08-05 04:10:00,
2013-08-04 21:15:00,83.5,25.5,30.11,NNW,339,7.0,19.0,12,0.00,,,0.00,Wunderground v.1.15,2013-08-05 04:15:00,
2013-08-04 21:20:00,83.2,25.3,30.11,NNW,329,6.0,6.0,12,0.00,,,0.00,Wunderground v.1.15,2013-08-05 04:20:00,
2013-08-04 21:30:00,82.5,24.7,30.11,NW,324,7.0,7.0,12,0.00,,,0.00,Wunderground v.1.15,2013-08-05 04:30:00,
2013-08-04 21:35:00,82.4,24.7,30.11,NW,325,6.0,10.0,12,0.00,,,0.00,Wunderground v.1.15,2013-08-05 04:35:00,
2013-08-04 21:45:00,82.6,22.7,30.11,WNW,299,6.0,8.0,11,0.00,,,0.00,Wunderground v.1.15,2013-08-05 04:45:00,
2013-08-04 21:55:00,82.9,20.7,30.11,NNW,335,6.0,13.0,10,0.00,,,0.00,Wunderground v.1.15,2013-08-05 04:55:00,
2013-08-04 22:00:00,83.1,20.9,30.11,NW,316,6.0,6.0,10,0.00,,,0.00,Wunderground v.1.15,2013-08-05 05:00:00,
2013-08-04 22:05:00,83.2,20.9,30.11,NW,326,6.0,15.0,10,0.00,,,0.00,Wunderground v.1.15,2013-08-05 05:05:00,
2013-08-04 22:10:00,83.0,20.8,30.11,NNW,333,6.0,15.0,10,0.00,,,0.00,Wunderground v.1.15,2013-08-05 05:10:00,
2013-08-04 22:15:00,83.0,20.8,30.11,NW,320,6.0,15.0,10,0.00,,,0.00,Wunderground v.1.15,2013-08-05 05:15:00,
2013-08-04 22:20:00,82.9,20.7,30.11,NNW,330,5.0,15.0,10,0.00,,,0.00,Wunderground v.1.15,2013-08-05 05:20:00,
2013-08-04 22:30:00,82.9,20.7,30.11,NW,321,4.0,15.0,10,0.00,,,0.00,Wunderground v.1.15,2013-08-05 05:30:00,
2013-08-04 22:35:00,83.2,20.9,30.11,NNW,333,5.0,15.0,10,0.00,,,0.00,Wunderground v.1.15,2013-08-05 05:35:00,
2013-08-04 22:45:00,83.0,20.8,30.11,North,354,2.0,13.0,10,0.00,,,0.00,Wunderground v.1.15,2013-08-05 05:45:00,
2013-08-04 22:50:00,82.9,20.7,30.12,NW,319,2.0,2.0,10,0.00,,,0.00,Wunderground v.1.15,2013-08-05 05:50:00,
2013-08-04 23:00:00,82.0,22.3,30.12,North,9,0.0,13.0,11,0.00,,,0.00,Wunderground v.1.15,2013-08-05 06:00:00,
2013-08-04 23:05:00,81.5,21.9,30.11,NNE,26,0.0,13.0,11,0.00,,,0.00,Wunderground v.1.15,2013-08-05 06:05:00,
2013-08-04 23:15:00,80.4,21.0,30.12,NNE,26,0.0,10.0,11,0.00,,,0.00,Wunderground v.1.15,2013-08-05 06:15:00,
2013-08-04 23:20:00,80.0,22.8,30.12,NNE,26,0.0,10.0,12,0.00,,,0.00,Wunderground v.1.15,2013-08-05 06:20:00,
2013-08-04 23:30:00,79.5,22.4,30.12,NE,36,0.0,10.0,12,0.00,,,0.00,Wunderground v.1.15,2013-08-05 06:30:00,
2013-08-04 23:35:00,79.2,20.1,30.12,NE,36,0.0,10.0,11,0.00,,,0.00,Wunderground v.1.15,2013-08-05 06:35:00,
2013-08-04 23:45:00,78.9,21.9,30.12,NE,36,0.0,0.0,12,0.00,,,0.00,Wunderground v.1.15,2013-08-05 06:45:00,
2013-08-04 23:50:00,79.2,20.1,30.12,NE,36,0.0,0.0,11,0.00,,,0.00,Wunderground v.1.15,2013-08-05 06:50:00,
2013-08-04 23:55:00,79.4,20.3,30.12,NE,36,0.0,0.0,11,0.00,,,0.00,Wunderground v.1.15,2013-08-05 06:55:00,